sensor_id;sensor_type;location;lat;lon;timestamp;temperature;humidity
3035;DHT22;1527;48.836;9.172;2022-09-13T00:01:10;17.60;99.90
3035;DHT22;1527;48.836;9.172;2022-09-13T00:03:40;17.60;99.90
3035;DHT22;1527;48.836;9.172;2022-09-13T00:06:11;17.50;99.90
3035;DHT22;1527;48.836;9.172;2022-09-13T00:08:43;17.50;99.90
3035;DHT22;1527;48.836;9.172;2022-09-13T00:11:15;17.50;99.90
3035;DHT22;1527;48.836;9.172;2022-09-13T00:13:45;17.50;99.90
3035;DHT22;1527;48.836;9.172;2022-09-13T00:16:16;17.50;99.90
3035;DHT22;1527;48.836;9.172;2022-09-13T00:18:46;17.50;99.90
3035;DHT22;1527;48.836;9.172;2022-09-13T00:21:18;17.50;99.90
3035;DHT22;1527;48.836;9.172;2022-09-13T00:23:51;17.50;99.90
3035;DHT22;1527;48.836;9.172;2022-09-13T00:26:23;17.40;99.90
3035;DHT22;1527;48.836;9.172;2022-09-13T00:28:58;17.40;99.90
3035;DHT22;1527;48.836;9.172;2022-09-13T00:31:38;17.30;99.90
3035;DHT22;1527;48.836;9.172;2022-09-13T00:34:10;17.30;99.90
3035;DHT22;1527;48.836;9.172;2022-09-13T00:36:41;17.30;99.90
3035;DHT22;1527;48.836;9.172;2022-09-13T00:39:12;17.30;99.90
3035;DHT22;1527;48.836;9.172;2022-09-13T00:41:42;17.30;99.90
3035;DHT22;1527;48.836;9.172;2022-09-13T00:44:46;17.20;99.90
3035;DHT22;1527;48.836;9.172;2022-09-13T00:47:34;17.20;99.90
3035;DHT22;1527;48.836;9.172;2022-09-13T00:50:18;17.20;99.90
3035;DHT22;1527;48.836;9.172;2022-09-13T00:53:01;17.10;99.90
3035;DHT22;1527;48.836;9.172;2022-09-13T00:55:39;17.10;99.90
3035;DHT22;1527;48.836;9.172;2022-09-13T00:58:15;17.10;99.90
3035;DHT22;1527;48.836;9.172;2022-09-13T01:00:48;17.10;99.90
3035;DHT22;1527;48.836;9.172;2022-09-13T01:03:20;17.10;99.90
3035;DHT22;1527;48.836;9.172;2022-09-13T01:05:56;17.10;99.90
3035;DHT22;1527;48.836;9.172;2022-09-13T01:08:28;17.10;99.90
3035;DHT22;1527;48.836;9.172;2022-09-13T01:11:00;17.10;99.90
3035;DHT22;1527;48.836;9.172;2022-09-13T01:13:32;17.00;99.90
3035;DHT22;1527;48.836;9.172;2022-09-13T01:16:02;17.00;99.90
3035;DHT22;1527;48.836;9.172;2022-09-13T01:18:36;17.00;99.90
3035;DHT22;1527;48.836;9.172;2022-09-13T01:21:47;17.00;99.90
3035;DHT22;1527;48.836;9.172;2022-09-13T01:24:59;16.90;99.90
3035;DHT22;1527;48.836;9.172;2022-09-13T01:28:03;16.90;99.90
3035;DHT22;1527;48.836;9.172;2022-09-13T01:30:47;16.90;99.90
3035;DHT22;1527;48.836;9.172;2022-09-13T01:33:56;16.80;99.90
3035;DHT22;1527;48.836;9.172;2022-09-13T01:40:01;16.80;99.90
3035;DHT22;1527;48.836;9.172;2022-09-13T01:42:47;16.80;99.90
3035;DHT22;1527;48.836;9.172;2022-09-13T01:45:28;16.80;99.90
3035;DHT22;1527;48.836;9.172;2022-09-13T01:48:11;16.80;99.90
3035;DHT22;1527;48.836;9.172;2022-09-13T01:50:46;16.80;99.90
3035;DHT22;1527;48.836;9.172;2022-09-13T01:53:27;16.80;99.90
3035;DHT22;1527;48.836;9.172;2022-09-13T01:56:03;16.80;99.90
3035;DHT22;1527;48.836;9.172;2022-09-13T01:58:38;16.80;99.90
3035;DHT22;1527;48.836;9.172;2022-09-13T02:01:14;16.80;99.90
3035;DHT22;1527;48.836;9.172;2022-09-13T02:03:52;16.70;99.90
3035;DHT22;1527;48.836;9.172;2022-09-13T02:06:26;16.70;99.90
3035;DHT22;1527;48.836;9.172;2022-09-13T02:09:00;16.60;99.90
3035;DHT22;1527;48.836;9.172;2022-09-13T02:11:32;16.60;99.90
3035;DHT22;1527;48.836;9.172;2022-09-13T02:14:13;16.60;99.90
3035;DHT22;1527;48.836;9.172;2022-09-13T02:16:55;16.60;99.90
3035;DHT22;1527;48.836;9.172;2022-09-13T02:19:34;16.50;99.90
3035;DHT22;1527;48.836;9.172;2022-09-13T02:22:07;16.60;99.90
3035;DHT22;1527;48.836;9.172;2022-09-13T02:24:41;16.50;99.90
3035;DHT22;1527;48.836;9.172;2022-09-13T02:27:22;16.50;99.90
3035;DHT22;1527;48.836;9.172;2022-09-13T02:29:57;16.50;99.90
3035;DHT22;1527;48.836;9.172;2022-09-13T02:32:32;16.50;99.90
3035;DHT22;1527;48.836;9.172;2022-09-13T02:35:09;16.50;99.90
3035;DHT22;1527;48.836;9.172;2022-09-13T02:38:16;16.50;99.90
3035;DHT22;1527;48.836;9.172;2022-09-13T02:41:04;16.00;99.90
3035;DHT22;1527;48.836;9.172;2022-09-13T02:43:40;16.50;99.90
3035;DHT22;1527;48.836;9.172;2022-09-13T02:46:21;16.50;99.90
3035;DHT22;1527;48.836;9.172;2022-09-13T02:48:59;16.50;99.90
3035;DHT22;1527;48.836;9.172;2022-09-13T02:51:39;16.60;99.90
3035;DHT22;1527;48.836;9.172;2022-09-13T02:54:22;16.50;99.90
3035;DHT22;1527;48.836;9.172;2022-09-13T02:56:58;16.50;99.90
3035;DHT22;1527;48.836;9.172;2022-09-13T02:59:30;16.50;99.90
3035;DHT22;1527;48.836;9.172;2022-09-13T03:02:04;16.50;99.90
3035;DHT22;1527;48.836;9.172;2022-09-13T03:04:37;16.40;99.90
3035;DHT22;1527;48.836;9.172;2022-09-13T03:07:10;16.40;99.90
3035;DHT22;1527;48.836;9.172;2022-09-13T03:09:45;16.40;99.90
3035;DHT22;1527;48.836;9.172;2022-09-13T03:12:29;16.40;99.90
3035;DHT22;1527;48.836;9.172;2022-09-13T03:15:12;16.40;99.90
3035;DHT22;1527;48.836;9.172;2022-09-13T03:17:53;16.30;99.90
3035;DHT22;1527;48.836;9.172;2022-09-13T03:20:35;16.30;99.90
3035;DHT22;1527;48.836;9.172;2022-09-13T03:23:39;16.20;99.90
3035;DHT22;1527;48.836;9.172;2022-09-13T03:26:30;16.20;99.90
3035;DHT22;1527;48.836;9.172;2022-09-13T03:29:25;16.20;99.90
3035;DHT22;1527;48.836;9.172;2022-09-13T03:32:23;16.20;99.90
3035;DHT22;1527;48.836;9.172;2022-09-13T03:35:52;16.20;99.90
3035;DHT22;1527;48.836;9.172;2022-09-13T03:38:26;16.20;99.90
3035;DHT22;1527;48.836;9.172;2022-09-13T03:41:05;16.20;99.90
3035;DHT22;1527;48.836;9.172;2022-09-13T03:43:47;16.10;99.90
3035;DHT22;1527;48.836;9.172;2022-09-13T03:46:44;16.20;99.90
3035;DHT22;1527;48.836;9.172;2022-09-13T03:49:17;16.20;99.90
3035;DHT22;1527;48.836;9.172;2022-09-13T03:51:48;16.20;99.90
3035;DHT22;1527;48.836;9.172;2022-09-13T03:54:21;16.10;99.90
3035;DHT22;1527;48.836;9.172;2022-09-13T03:57:10;16.20;99.90
3035;DHT22;1527;48.836;9.172;2022-09-13T03:59:42;16.10;99.90
3035;DHT22;1527;48.836;9.172;2022-09-13T04:02:14;16.10;99.90
3035;DHT22;1527;48.836;9.172;2022-09-13T04:04:44;16.10;99.90
3035;DHT22;1527;48.836;9.172;2022-09-13T04:07:16;16.20;99.90
3035;DHT22;1527;48.836;9.172;2022-09-13T04:09:47;16.10;99.90
3035;DHT22;1527;48.836;9.172;2022-09-13T04:12:18;16.10;99.90
3035;DHT22;1527;48.836;9.172;2022-09-13T04:14:47;16.10;99.90
3035;DHT22;1527;48.836;9.172;2022-09-13T04:17:20;16.10;99.90
3035;DHT22;1527;48.836;9.172;2022-09-13T04:20:06;16.10;99.90
3035;DHT22;1527;48.836;9.172;2022-09-13T04:22:38;16.10;99.90
3035;DHT22;1527;48.836;9.172;2022-09-13T04:25:08;16.10;99.90
3035;DHT22;1527;48.836;9.172;2022-09-13T04:27:39;16.10;99.90
3035;DHT22;1527;48.836;9.172;2022-09-13T04:30:10;16.10;99.90
3035;DHT22;1527;48.836;9.172;2022-09-13T04:32:42;16.10;99.90
3035;DHT22;1527;48.836;9.172;2022-09-13T04:35:15;16.00;99.90
3035;DHT22;1527;48.836;9.172;2022-09-13T04:37:48;16.00;99.90
3035;DHT22;1527;48.836;9.172;2022-09-13T04:40:17;16.00;99.90
3035;DHT22;1527;48.836;9.172;2022-09-13T04:42:53;16.00;99.90
3035;DHT22;1527;48.836;9.172;2022-09-13T04:45:33;16.00;99.90
3035;DHT22;1527;48.836;9.172;2022-09-13T04:48:02;16.10;99.90
3035;DHT22;1527;48.836;9.172;2022-09-13T04:50:31;16.10;99.90
3035;DHT22;1527;48.836;9.172;2022-09-13T04:53:02;16.10;99.90
3035;DHT22;1527;48.836;9.172;2022-09-13T04:55:32;16.10;99.90
3035;DHT22;1527;48.836;9.172;2022-09-13T04:58:05;16.10;99.90
3035;DHT22;1527;48.836;9.172;2022-09-13T05:00:34;16.10;99.90
3035;DHT22;1527;48.836;9.172;2022-09-13T05:03:03;16.10;99.90
3035;DHT22;1527;48.836;9.172;2022-09-13T05:05:38;16.20;99.90
3035;DHT22;1527;48.836;9.172;2022-09-13T05:08:08;16.10;99.90
3035;DHT22;1527;48.836;9.172;2022-09-13T05:10:38;16.30;99.90
3035;DHT22;1527;48.836;9.172;2022-09-13T05:13:08;16.30;99.90
3035;DHT22;1527;48.836;9.172;2022-09-13T05:15:37;16.40;99.90
3035;DHT22;1527;48.836;9.172;2022-09-13T05:18:06;16.30;99.90
3035;DHT22;1527;48.836;9.172;2022-09-13T05:20:35;16.40;99.90
3035;DHT22;1527;48.836;9.172;2022-09-13T05:23:04;16.40;99.90
3035;DHT22;1527;48.836;9.172;2022-09-13T05:25:34;16.40;99.90
3035;DHT22;1527;48.836;9.172;2022-09-13T05:28:03;16.40;99.90
3035;DHT22;1527;48.836;9.172;2022-09-13T05:30:43;16.50;99.90
3035;DHT22;1527;48.836;9.172;2022-09-13T05:33:58;16.50;99.90
3035;DHT22;1527;48.836;9.172;2022-09-13T05:36:35;16.50;99.90
3035;DHT22;1527;48.836;9.172;2022-09-13T05:39:06;16.50;99.90
3035;DHT22;1527;48.836;9.172;2022-09-13T05:41:59;16.50;99.90
3035;DHT22;1527;48.836;9.172;2022-09-13T05:44:28;16.60;99.90
3035;DHT22;1527;48.836;9.172;2022-09-13T05:46:59;16.60;99.90
3035;DHT22;1527;48.836;9.172;2022-09-13T05:49:28;16.70;99.90
3035;DHT22;1527;48.836;9.172;2022-09-13T05:51:57;16.70;99.90
3035;DHT22;1527;48.836;9.172;2022-09-13T05:54:27;16.70;99.90
3035;DHT22;1527;48.836;9.172;2022-09-13T05:56:56;16.70;99.90
3035;DHT22;1527;48.836;9.172;2022-09-13T05:59:25;16.80;99.90
3035;DHT22;1527;48.836;9.172;2022-09-13T06:01:56;16.80;99.90
3035;DHT22;1527;48.836;9.172;2022-09-13T06:04:27;16.80;99.90
3035;DHT22;1527;48.836;9.172;2022-09-13T06:06:56;16.90;99.90
3035;DHT22;1527;48.836;9.172;2022-09-13T06:09:27;17.00;99.90
3035;DHT22;1527;48.836;9.172;2022-09-13T06:11:57;17.00;99.90
3035;DHT22;1527;48.836;9.172;2022-09-13T06:14:26;17.10;99.90
3035;DHT22;1527;48.836;9.172;2022-09-13T06:16:55;17.20;99.90
3035;DHT22;1527;48.836;9.172;2022-09-13T06:19:29;17.30;99.90
3035;DHT22;1527;48.836;9.172;2022-09-13T06:22:00;17.30;99.90
3035;DHT22;1527;48.836;9.172;2022-09-13T06:24:29;17.40;99.90
3035;DHT22;1527;48.836;9.172;2022-09-13T06:26:59;17.40;99.90
3035;DHT22;1527;48.836;9.172;2022-09-13T06:29:28;17.50;99.90
3035;DHT22;1527;48.836;9.172;2022-09-13T06:31:57;17.50;99.90
3035;DHT22;1527;48.836;9.172;2022-09-13T06:34:29;17.60;99.90
3035;DHT22;1527;48.836;9.172;2022-09-13T06:37:01;17.60;99.90
3035;DHT22;1527;48.836;9.172;2022-09-13T06:39:34;17.70;99.90
3035;DHT22;1527;48.836;9.172;2022-09-13T06:42:06;17.70;99.90
3035;DHT22;1527;48.836;9.172;2022-09-13T06:44:39;17.70;99.90
3035;DHT22;1527;48.836;9.172;2022-09-13T06:47:09;17.80;99.90
3035;DHT22;1527;48.836;9.172;2022-09-13T06:49:41;17.90;99.90
3035;DHT22;1527;48.836;9.172;2022-09-13T06:52:13;18.00;99.90
3035;DHT22;1527;48.836;9.172;2022-09-13T06:54:42;18.10;99.90
3035;DHT22;1527;48.836;9.172;2022-09-13T06:57:11;18.20;99.90
3035;DHT22;1527;48.836;9.172;2022-09-13T06:59:41;18.30;99.90
3035;DHT22;1527;48.836;9.172;2022-09-13T07:02:10;18.40;99.90
3035;DHT22;1527;48.836;9.172;2022-09-13T07:04:41;18.50;99.90
3035;DHT22;1527;48.836;9.172;2022-09-13T07:07:10;18.50;99.90
3035;DHT22;1527;48.836;9.172;2022-09-13T07:09:39;18.60;99.90
3035;DHT22;1527;48.836;9.172;2022-09-13T07:12:11;18.60;99.90
3035;DHT22;1527;48.836;9.172;2022-09-13T07:14:46;18.70;99.90
3035;DHT22;1527;48.836;9.172;2022-09-13T07:17:15;18.80;99.90
3035;DHT22;1527;48.836;9.172;2022-09-13T07:19:46;18.80;99.90
3035;DHT22;1527;48.836;9.172;2022-09-13T07:22:15;18.90;99.90
3035;DHT22;1527;48.836;9.172;2022-09-13T07:24:44;18.90;99.90
3035;DHT22;1527;48.836;9.172;2022-09-13T07:27:16;19.00;99.90
3035;DHT22;1527;48.836;9.172;2022-09-13T07:29:45;19.10;99.90
3035;DHT22;1527;48.836;9.172;2022-09-13T07:32:17;19.10;99.90
3035;DHT22;1527;48.836;9.172;2022-09-13T07:34:47;19.20;99.90
3035;DHT22;1527;48.836;9.172;2022-09-13T07:37:17;19.20;99.90
3035;DHT22;1527;48.836;9.172;2022-09-13T07:39:49;19.30;99.90
3035;DHT22;1527;48.836;9.172;2022-09-13T07:42:18;19.40;99.90
3035;DHT22;1527;48.836;9.172;2022-09-13T07:44:52;19.40;99.90
3035;DHT22;1527;48.836;9.172;2022-09-13T07:47:21;19.50;99.90
3035;DHT22;1527;48.836;9.172;2022-09-13T07:49:51;19.60;99.90
3035;DHT22;1527;48.836;9.172;2022-09-13T07:52:20;19.60;99.90
3035;DHT22;1527;48.836;9.172;2022-09-13T07:54:50;19.60;99.90
3035;DHT22;1527;48.836;9.172;2022-09-13T07:57:19;19.70;99.90
3035;DHT22;1527;48.836;9.172;2022-09-13T07:59:48;19.70;99.90
3035;DHT22;1527;48.836;9.172;2022-09-13T08:02:18;19.80;99.90
3035;DHT22;1527;48.836;9.172;2022-09-13T08:04:47;19.90;99.90
3035;DHT22;1527;48.836;9.172;2022-09-13T08:07:17;20.00;99.90
3035;DHT22;1527;48.836;9.172;2022-09-13T08:09:46;20.10;99.90
3035;DHT22;1527;48.836;9.172;2022-09-13T08:12:16;20.20;99.90
3035;DHT22;1527;48.836;9.172;2022-09-13T08:14:45;20.20;99.90
3035;DHT22;1527;48.836;9.172;2022-09-13T08:17:14;20.30;99.90
3035;DHT22;1527;48.836;9.172;2022-09-13T08:19:43;20.40;99.90
3035;DHT22;1527;48.836;9.172;2022-09-13T08:22:12;20.50;99.90
3035;DHT22;1527;48.836;9.172;2022-09-13T08:24:42;20.60;99.90
3035;DHT22;1527;48.836;9.172;2022-09-13T08:27:11;20.60;99.90
3035;DHT22;1527;48.836;9.172;2022-09-13T08:29:41;20.80;99.90
3035;DHT22;1527;48.836;9.172;2022-09-13T08:32:10;20.80;99.90
3035;DHT22;1527;48.836;9.172;2022-09-13T08:34:39;20.70;99.90
3035;DHT22;1527;48.836;9.172;2022-09-13T08:37:08;20.80;99.90
3035;DHT22;1527;48.836;9.172;2022-09-13T08:39:38;21.00;99.90
3035;DHT22;1527;48.836;9.172;2022-09-13T08:42:22;21.00;99.90
3035;DHT22;1527;48.836;9.172;2022-09-13T08:44:58;21.10;99.90
3035;DHT22;1527;48.836;9.172;2022-09-13T08:47:36;21.30;99.90
3035;DHT22;1527;48.836;9.172;2022-09-13T08:50:16;21.30;99.90
3035;DHT22;1527;48.836;9.172;2022-09-13T08:53:03;21.40;99.90
3035;DHT22;1527;48.836;9.172;2022-09-13T08:55:46;21.50;99.90
3035;DHT22;1527;48.836;9.172;2022-09-13T08:58:32;21.60;99.90
3035;DHT22;1527;48.836;9.172;2022-09-13T09:01:13;21.70;99.90
3035;DHT22;1527;48.836;9.172;2022-09-13T09:03:53;21.70;99.90
3035;DHT22;1527;48.836;9.172;2022-09-13T09:06:25;21.80;99.90
3035;DHT22;1527;48.836;9.172;2022-09-13T09:08:58;22.10;99.90
3035;DHT22;1527;48.836;9.172;2022-09-13T09:11:36;22.20;99.90
3035;DHT22;1527;48.836;9.172;2022-09-13T09:14:17;22.30;99.90
3035;DHT22;1527;48.836;9.172;2022-09-13T09:16:52;22.50;99.90
3035;DHT22;1527;48.836;9.172;2022-09-13T09:19:27;22.50;99.90
3035;DHT22;1527;48.836;9.172;2022-09-13T09:22:03;22.60;99.90
3035;DHT22;1527;48.836;9.172;2022-09-13T09:24:36;22.70;99.90
3035;DHT22;1527;48.836;9.172;2022-09-13T09:27:14;22.60;99.90
3035;DHT22;1527;48.836;9.172;2022-09-13T09:29:46;22.70;99.90
3035;DHT22;1527;48.836;9.172;2022-09-13T09:35:23;22.70;99.90
3035;DHT22;1527;48.836;9.172;2022-09-13T09:38:16;22.70;99.90
3035;DHT22;1527;48.836;9.172;2022-09-13T09:40:51;22.80;99.90
3035;DHT22;1527;48.836;9.172;2022-09-13T09:43:24;22.90;99.90
3035;DHT22;1527;48.836;9.172;2022-09-13T09:46:00;22.90;99.90
3035;DHT22;1527;48.836;9.172;2022-09-13T09:48:38;23.00;99.90
3035;DHT22;1527;48.836;9.172;2022-09-13T09:51:11;23.10;99.90
3035;DHT22;1527;48.836;9.172;2022-09-13T09:53:44;23.10;99.90
3035;DHT22;1527;48.836;9.172;2022-09-13T09:56:23;23.10;99.90
3035;DHT22;1527;48.836;9.172;2022-09-13T09:58:53;23.20;99.90
3035;DHT22;1527;48.836;9.172;2022-09-13T10:01:26;23.30;99.90
3035;DHT22;1527;48.836;9.172;2022-09-13T10:04:06;23.40;99.90
3035;DHT22;1527;48.836;9.172;2022-09-13T10:06:44;23.40;99.90
3035;DHT22;1527;48.836;9.172;2022-09-13T10:09:15;23.50;99.90
3035;DHT22;1527;48.836;9.172;2022-09-13T10:11:48;23.60;99.90
3035;DHT22;1527;48.836;9.172;2022-09-13T10:14:38;23.50;99.90
3035;DHT22;1527;48.836;9.172;2022-09-13T10:17:16;23.60;99.90
3035;DHT22;1527;48.836;9.172;2022-09-13T10:19:51;23.70;99.90
3035;DHT22;1527;48.836;9.172;2022-09-13T10:22:23;23.80;99.90
3035;DHT22;1527;48.836;9.172;2022-09-13T10:24:52;23.90;99.90
3035;DHT22;1527;48.836;9.172;2022-09-13T10:27:26;24.10;99.90
3035;DHT22;1527;48.836;9.172;2022-09-13T10:29:58;24.10;99.90
3035;DHT22;1527;48.836;9.172;2022-09-13T10:32:30;24.20;99.90
3035;DHT22;1527;48.836;9.172;2022-09-13T10:35:14;24.30;99.90
3035;DHT22;1527;48.836;9.172;2022-09-13T10:37:44;24.40;99.90
3035;DHT22;1527;48.836;9.172;2022-09-13T10:40:18;24.40;99.90
3035;DHT22;1527;48.836;9.172;2022-09-13T10:42:53;24.60;99.90
3035;DHT22;1527;48.836;9.172;2022-09-13T10:45:27;24.60;99.90
3035;DHT22;1527;48.836;9.172;2022-09-13T10:48:03;24.80;99.90
3035;DHT22;1527;48.836;9.172;2022-09-13T10:50:33;24.90;99.90
3035;DHT22;1527;48.836;9.172;2022-09-13T10:53:03;25.00;99.90
3035;DHT22;1527;48.836;9.172;2022-09-13T10:55:53;25.10;99.90
3035;DHT22;1527;48.836;9.172;2022-09-13T10:58:22;25.20;99.90
3035;DHT22;1527;48.836;9.172;2022-09-13T11:01:20;25.30;99.90
3035;DHT22;1527;48.836;9.172;2022-09-13T11:07:45;25.60;99.90
3035;DHT22;1527;48.836;9.172;2022-09-13T11:10:25;25.70;99.90
3035;DHT22;1527;48.836;9.172;2022-09-13T11:13:04;25.90;99.90
3035;DHT22;1527;48.836;9.172;2022-09-13T11:15:48;25.90;99.90
3035;DHT22;1527;48.836;9.172;2022-09-13T11:18:43;25.90;99.90
3035;DHT22;1527;48.836;9.172;2022-09-13T11:21:34;26.00;99.90
3035;DHT22;1527;48.836;9.172;2022-09-13T11:24:35;26.20;99.90
3035;DHT22;1527;48.836;9.172;2022-09-13T11:27:16;26.20;99.90
3035;DHT22;1527;48.836;9.172;2022-09-13T11:30:07;26.30;99.90
3035;DHT22;1527;48.836;9.172;2022-09-13T11:32:55;26.50;99.90
3035;DHT22;1527;48.836;9.172;2022-09-13T11:35:41;26.70;99.90
3035;DHT22;1527;48.836;9.172;2022-09-13T11:38:30;26.80;99.90
3035;DHT22;1527;48.836;9.172;2022-09-13T11:41:16;26.90;99.90
3035;DHT22;1527;48.836;9.172;2022-09-13T11:44:08;26.90;99.90
3035;DHT22;1527;48.836;9.172;2022-09-13T11:46:50;26.90;99.90
3035;DHT22;1527;48.836;9.172;2022-09-13T11:49:34;26.90;99.90
3035;DHT22;1527;48.836;9.172;2022-09-13T11:52:16;27.00;99.90
3035;DHT22;1527;48.836;9.172;2022-09-13T11:55:15;27.20;99.90
3035;DHT22;1527;48.836;9.172;2022-09-13T11:57:48;27.30;99.90
3035;DHT22;1527;48.836;9.172;2022-09-13T12:00:22;27.30;99.90
3035;DHT22;1527;48.836;9.172;2022-09-13T12:03:02;27.40;99.90
3035;DHT22;1527;48.836;9.172;2022-09-13T12:05:38;27.40;99.90
3035;DHT22;1527;48.836;9.172;2022-09-13T12:08:14;27.30;99.90
3035;DHT22;1527;48.836;9.172;2022-09-13T12:10:51;27.40;99.90
3035;DHT22;1527;48.836;9.172;2022-09-13T12:13:25;27.50;99.90
3035;DHT22;1527;48.836;9.172;2022-09-13T12:15:59;27.60;99.90
3035;DHT22;1527;48.836;9.172;2022-09-13T12:18:34;27.70;99.90
3035;DHT22;1527;48.836;9.172;2022-09-13T12:21:07;27.70;99.90
3035;DHT22;1527;48.836;9.172;2022-09-13T12:23:45;27.80;99.90
3035;DHT22;1527;48.836;9.172;2022-09-13T12:26:25;27.70;99.90
3035;DHT22;1527;48.836;9.172;2022-09-13T12:29:02;27.80;99.90
3035;DHT22;1527;48.836;9.172;2022-09-13T12:31:34;27.80;99.90
3035;DHT22;1527;48.836;9.172;2022-09-13T12:34:05;27.80;99.90
3035;DHT22;1527;48.836;9.172;2022-09-13T12:37:03;27.90;99.90
3035;DHT22;1527;48.836;9.172;2022-09-13T12:40:00;28.00;99.90
3035;DHT22;1527;48.836;9.172;2022-09-13T12:51:59;27.90;99.90
3035;DHT22;1527;48.836;9.172;2022-09-13T12:54:51;28.00;99.90
3035;DHT22;1527;48.836;9.172;2022-09-13T12:57:38;28.00;99.90
3035;DHT22;1527;48.836;9.172;2022-09-13T13:00:17;28.10;99.90
3035;DHT22;1527;48.836;9.172;2022-09-13T13:03:02;28.10;99.90
3035;DHT22;1527;48.836;9.172;2022-09-13T13:05:41;28.10;99.70
3035;DHT22;1527;48.836;9.172;2022-09-13T13:08:27;28.20;99.80
3035;DHT22;1527;48.836;9.172;2022-09-13T13:11:03;28.00;98.70
3035;DHT22;1527;48.836;9.172;2022-09-13T13:13:36;28.10;98.60
3035;DHT22;1527;48.836;9.172;2022-09-13T13:16:24;28.10;98.60
3035;DHT22;1527;48.836;9.172;2022-09-13T13:18:56;28.00;99.20
3035;DHT22;1527;48.836;9.172;2022-09-13T13:21:31;28.10;98.70
3035;DHT22;1527;48.836;9.172;2022-09-13T13:24:37;28.20;98.80
3035;DHT22;1527;48.836;9.172;2022-09-13T13:27:38;28.10;98.50
3035;DHT22;1527;48.836;9.172;2022-09-13T13:30:51;28.20;97.80
3035;DHT22;1527;48.836;9.172;2022-09-13T13:33:27;28.10;97.90
3035;DHT22;1527;48.836;9.172;2022-09-13T13:36:22;28.10;97.80
3035;DHT22;1527;48.836;9.172;2022-09-13T13:38:53;28.10;98.00
3035;DHT22;1527;48.836;9.172;2022-09-13T13:41:43;28.10;97.80
3035;DHT22;1527;48.836;9.172;2022-09-13T13:47:54;28.20;97.20
3035;DHT22;1527;48.836;9.172;2022-09-13T13:51:18;28.20;96.90
3035;DHT22;1527;48.836;9.172;2022-09-13T13:54:02;28.30;96.50
3035;DHT22;1527;48.836;9.172;2022-09-13T13:56:48;28.20;96.10
3035;DHT22;1527;48.836;9.172;2022-09-13T13:59:25;28.30;95.80
3035;DHT22;1527;48.836;9.172;2022-09-13T14:01:57;28.30;95.30
3035;DHT22;1527;48.836;9.172;2022-09-13T14:04:50;28.40;94.30
3035;DHT22;1527;48.836;9.172;2022-09-13T14:07:55;28.40;94.30
3035;DHT22;1527;48.836;9.172;2022-09-13T14:10:40;28.50;93.70
3035;DHT22;1527;48.836;9.172;2022-09-13T14:13:34;28.40;94.40
3035;DHT22;1527;48.836;9.172;2022-09-13T14:16:20;28.40;94.20
3035;DHT22;1527;48.836;9.172;2022-09-13T14:19:23;28.40;93.50
3035;DHT22;1527;48.836;9.172;2022-09-13T14:22:13;28.30;93.10
3035;DHT22;1527;48.836;9.172;2022-09-13T14:24:46;28.20;92.90
3035;DHT22;1527;48.836;9.172;2022-09-13T14:27:19;28.20;93.30
3035;DHT22;1527;48.836;9.172;2022-09-13T14:29:52;28.20;93.40
3035;DHT22;1527;48.836;9.172;2022-09-13T14:32:24;28.20;92.90
3035;DHT22;1527;48.836;9.172;2022-09-13T14:35:06;28.20;91.90
3035;DHT22;1527;48.836;9.172;2022-09-13T14:37:50;28.20;92.50
3035;DHT22;1527;48.836;9.172;2022-09-13T14:40:23;28.20;92.40
3035;DHT22;1527;48.836;9.172;2022-09-13T14:42:54;28.10;91.80
3035;DHT22;1527;48.836;9.172;2022-09-13T14:45:30;28.10;92.90
3035;DHT22;1527;48.836;9.172;2022-09-13T14:48:05;28.10;91.10
3035;DHT22;1527;48.836;9.172;2022-09-13T14:50:38;28.10;91.30
3035;DHT22;1527;48.836;9.172;2022-09-13T14:53:14;28.10;90.80
3035;DHT22;1527;48.836;9.172;2022-09-13T14:55:49;28.10;90.20
3035;DHT22;1527;48.836;9.172;2022-09-13T14:58:23;28.20;90.10
3035;DHT22;1527;48.836;9.172;2022-09-13T15:00:57;28.10;90.60
3035;DHT22;1527;48.836;9.172;2022-09-13T15:03:27;28.10;90.90
3035;DHT22;1527;48.836;9.172;2022-09-13T15:05:59;28.10;91.20
3035;DHT22;1527;48.836;9.172;2022-09-13T15:08:43;28.10;90.60
3035;DHT22;1527;48.836;9.172;2022-09-13T15:11:27;28.20;91.10
3035;DHT22;1527;48.836;9.172;2022-09-13T15:14:12;28.00;90.30
3035;DHT22;1527;48.836;9.172;2022-09-13T15:16:50;28.10;89.90
3035;DHT22;1527;48.836;9.172;2022-09-13T15:19:28;28.00;90.60
3035;DHT22;1527;48.836;9.172;2022-09-13T15:22:18;28.00;89.20
3035;DHT22;1527;48.836;9.172;2022-09-13T15:24:52;27.90;90.00
3035;DHT22;1527;48.836;9.172;2022-09-13T15:27:28;28.00;90.70
3035;DHT22;1527;48.836;9.172;2022-09-13T15:30:01;28.00;86.80
3035;DHT22;1527;48.836;9.172;2022-09-13T15:32:34;28.00;86.30
3035;DHT22;1527;48.836;9.172;2022-09-13T15:35:17;27.90;86.60
3035;DHT22;1527;48.836;9.172;2022-09-13T15:37:58;27.90;86.80
3035;DHT22;1527;48.836;9.172;2022-09-13T15:40:29;27.80;87.70
3035;DHT22;1527;48.836;9.172;2022-09-13T15:43:10;27.80;86.70
3035;DHT22;1527;48.836;9.172;2022-09-13T15:45:40;27.80;88.00
3035;DHT22;1527;48.836;9.172;2022-09-13T15:48:18;27.70;88.10
3035;DHT22;1527;48.836;9.172;2022-09-13T15:51:06;27.70;89.40
3035;DHT22;1527;48.836;9.172;2022-09-13T15:53:38;27.70;90.10
3035;DHT22;1527;48.836;9.172;2022-09-13T15:56:12;27.60;90.30
3035;DHT22;1527;48.836;9.172;2022-09-13T15:58:44;27.60;90.90
3035;DHT22;1527;48.836;9.172;2022-09-13T16:01:14;27.60;91.20
3035;DHT22;1527;48.836;9.172;2022-09-13T16:03:45;27.60;91.60
3035;DHT22;1527;48.836;9.172;2022-09-13T16:06:14;27.70;92.10
3035;DHT22;1527;48.836;9.172;2022-09-13T16:08:43;27.70;92.50
3035;DHT22;1527;48.836;9.172;2022-09-13T16:11:12;27.70;92.80
3035;DHT22;1527;48.836;9.172;2022-09-13T16:13:41;27.70;92.80
3035;DHT22;1527;48.836;9.172;2022-09-13T16:16:12;27.70;93.20
3035;DHT22;1527;48.836;9.172;2022-09-13T16:18:42;27.60;93.50
3035;DHT22;1527;48.836;9.172;2022-09-13T16:21:12;27.60;93.80
3035;DHT22;1527;48.836;9.172;2022-09-13T16:23:41;27.50;93.90
3035;DHT22;1527;48.836;9.172;2022-09-13T16:26:10;27.40;94.40
3035;DHT22;1527;48.836;9.172;2022-09-13T16:28:39;27.40;95.00
3035;DHT22;1527;48.836;9.172;2022-09-13T16:31:09;27.30;95.50
3035;DHT22;1527;48.836;9.172;2022-09-13T16:33:40;27.30;95.90
3035;DHT22;1527;48.836;9.172;2022-09-13T16:36:11;27.20;96.30
3035;DHT22;1527;48.836;9.172;2022-09-13T16:38:45;27.20;96.70
3035;DHT22;1527;48.836;9.172;2022-09-13T16:41:14;27.20;96.80
3035;DHT22;1527;48.836;9.172;2022-09-13T16:43:44;27.20;97.30
3035;DHT22;1527;48.836;9.172;2022-09-13T16:46:16;27.20;97.50
3035;DHT22;1527;48.836;9.172;2022-09-13T16:48:52;27.20;98.00
3035;DHT22;1527;48.836;9.172;2022-09-13T16:51:23;27.20;98.50
3035;DHT22;1527;48.836;9.172;2022-09-13T16:53:53;27.20;98.40
3035;DHT22;1527;48.836;9.172;2022-09-13T16:56:23;27.20;98.70
3035;DHT22;1527;48.836;9.172;2022-09-13T16:58:53;27.20;98.80
3035;DHT22;1527;48.836;9.172;2022-09-13T17:01:23;27.20;99.20
3035;DHT22;1527;48.836;9.172;2022-09-13T17:03:55;27.20;99.90
3035;DHT22;1527;48.836;9.172;2022-09-13T17:06:25;27.10;99.90
3035;DHT22;1527;48.836;9.172;2022-09-13T17:08:57;27.10;99.90
3035;DHT22;1527;48.836;9.172;2022-09-13T17:11:29;27.00;99.90
3035;DHT22;1527;48.836;9.172;2022-09-13T17:14:01;27.00;99.90
3035;DHT22;1527;48.836;9.172;2022-09-13T17:16:34;27.00;99.90
3035;DHT22;1527;48.836;9.172;2022-09-13T17:19:13;27.00;99.90
3035;DHT22;1527;48.836;9.172;2022-09-13T17:21:44;26.90;99.90
3035;DHT22;1527;48.836;9.172;2022-09-13T17:24:13;26.90;99.90
3035;DHT22;1527;48.836;9.172;2022-09-13T17:26:43;26.80;99.90